FIMP/MRU METAR and TAF weather

Enter ICAO airport designator
Station Type Date Time Source
FIMP METAR 2019/10/18 07:00 UTC NOAA

FIMP 180700Z 13013KT 9999 FEW020 SCT050 25/15 Q1020


Station Type Date Time Source
FIMP Decoded METAR 2019/10/18 07:00 UTC NOAA

Plaisance Mauritius , Mauritius (FIMP) 20-26S 057-40E 57M
Oct 18, 2019 - 03:00 AM EDT / 2019.10.18 0700 UTC
Wind: from the SE (130 degrees) at 15 MPH (13 KT):0
Visibility: greater than 7 mile(s):0
Sky conditions: partly cloudy
Temperature: 77 F (25 C)
Dew Point: 59 F (15 C)
Relative Humidity: 53%
Pressure (altimeter): 30.12 in. Hg (1020 hPa)
ob: FIMP 180700Z 13013KT 9999 FEW020 SCT050 25/15 Q1020
cycle: 7

Station Type Date Time Source
FIMP TAF 2019/10/18 06:42 UTC NOAA

TAF TAF FIMP 180500Z 1806/1912 12012G25KT 9999 SCT017 PROB30
TEMPO 1900/1903 7000 -SHRA FEW010 SCT015 BKN050

Example: see airport list